createdAt,value
2017-10-04T00:00:48.901Z,15.43
2017-10-04T00:02:43.365Z,15.41
2017-10-04T00:03:43.517Z,15.49
2017-10-04T00:05:37.060Z,15.50
2017-10-04T00:08:31.485Z,15.43
2017-10-04T00:09:31.429Z,15.41
2017-10-04T00:11:25.965Z,15.47
2017-10-04T00:12:25.917Z,15.43
2017-10-04T00:14:20.397Z,15.38
2017-10-04T00:15:20.438Z,15.39
2017-10-04T00:17:16.125Z,15.41
2017-10-04T00:18:15.957Z,15.34
2017-10-04T00:20:10.613Z,15.35
2017-10-04T00:21:10.462Z,15.36
2017-10-04T00:23:03.998Z,15.32
2017-10-04T00:24:04.007Z,15.28
2017-10-04T00:25:58.494Z,15.25
2017-10-04T00:26:58.518Z,15.21
2017-10-04T00:28:52.062Z,15.21
2017-10-04T00:29:52.086Z,15.21
2017-10-04T00:31:46.583Z,15.17
2017-10-04T00:32:46.611Z,15.21
2017-10-04T00:34:40.175Z,15.35
2017-10-04T00:35:40.142Z,15.32
2017-10-04T00:37:33.614Z,15.36
2017-10-04T00:38:33.753Z,15.43
2017-10-04T00:40:28.134Z,15.44
2017-10-04T00:41:28.318Z,15.32
2017-10-04T00:43:22.687Z,15.28
2017-10-04T00:44:22.663Z,15.43
2017-10-04T00:46:16.182Z,15.47
2017-10-04T00:47:16.198Z,15.25
2017-10-04T00:49:12.183Z,15.31
2017-10-04T00:50:12.215Z,15.34
2017-10-04T00:52:05.687Z,15.25
2017-10-04T00:53:05.735Z,15.19
2017-10-04T00:55:00.192Z,15.29
2017-10-04T00:56:00.206Z,15.21
2017-10-04T00:57:53.879Z,15.21
2017-10-04T00:58:53.751Z,15.21
2017-10-04T01:00:47.279Z,15.27
2017-10-04T01:01:47.311Z,15.25
2017-10-04T01:03:41.759Z,15.29
2017-10-04T01:04:41.802Z,15.25
2017-10-04T01:06:36.294Z,15.21
2017-10-04T01:07:36.420Z,15.21
2017-10-04T01:09:30.796Z,15.16
2017-10-04T01:10:30.805Z,15.17
2017-10-04T01:12:26.484Z,15.27
2017-10-04T01:13:26.333Z,15.13
2017-10-04T01:15:20.797Z,15.27
2017-10-04T01:16:20.820Z,15.19
2017-10-04T01:18:14.342Z,15.19
2017-10-04T01:19:14.327Z,15.14
2017-10-04T01:21:07.941Z,15.21
2017-10-04T01:22:07.805Z,15.16
2017-10-04T01:24:02.317Z,15.17
2017-10-04T01:25:02.325Z,15.17
2017-10-04T01:26:56.853Z,15.10
2017-10-04T01:27:56.885Z,15.09
2017-10-04T01:29:49.901Z,15.17
2017-10-04T01:30:49.893Z,15.14
2017-10-04T01:32:43.364Z,15.17
2017-10-04T01:33:43.521Z,15.11
2017-10-04T01:35:37.891Z,15.06
2017-10-04T01:36:38.085Z,14.95
2017-10-04T01:38:32.613Z,15.11
2017-10-04T01:39:32.389Z,15.16
2017-10-04T01:41:27.390Z,15.10
2017-10-04T01:42:27.418Z,15.14
2017-10-04T01:44:20.890Z,15.07
2017-10-04T01:45:20.986Z,15.14
2017-10-04T01:47:15.403Z,15.13
2017-10-04T01:48:15.426Z,15.13
2017-10-04T01:50:10.258Z,15.13
2017-10-04T01:51:09.939Z,15.13
2017-10-04T01:53:03.387Z,15.14
2017-10-04T01:54:03.555Z,15.10
2017-10-04T01:55:56.947Z,15.16
2017-10-04T01:56:56.987Z,15.11
2017-10-04T01:58:51.570Z,14.99
2017-10-04T01:59:51.562Z,14.99
2017-10-04T02:01:45.043Z,14.99
2017-10-04T02:02:45.035Z,14.98
2017-10-04T02:04:38.595Z,15.01
2017-10-04T02:05:38.683Z,14.95
2017-10-04T02:07:32.155Z,14.95
2017-10-04T02:08:32.139Z,14.94
2017-10-04T02:10:26.596Z,14.98
2017-10-04T02:11:26.755Z,14.91
2017-10-04T02:13:20.172Z,14.95
2017-10-04T02:14:20.187Z,14.91
2017-10-04T02:16:14.668Z,14.83
2017-10-04T02:17:23.419Z,14.86
2017-10-04T02:19:08.252Z,14.94
2017-10-04T02:20:08.275Z,14.94
2017-10-04T02:22:02.820Z,15.02
2017-10-04T02:23:02.773Z,15.01
2017-10-04T02:24:57.387Z,15.01
2017-10-04T02:25:57.274Z,14.94
2017-10-04T02:27:51.860Z,15.02
2017-10-04T02:28:51.845Z,14.92
2017-10-04T02:30:45.308Z,15.03
2017-10-04T02:31:45.317Z,15.01
2017-10-04T02:33:38.852Z,15.06
2017-10-04T02:34:38.957Z,15.01
2017-10-04T02:36:33.364Z,15.14
2017-10-04T02:37:33.444Z,15.14
2017-10-04T02:39:27.989Z,15.06
2017-10-04T02:40:27.852Z,15.09
2017-10-04T02:42:23.333Z,15.09
2017-10-04T02:43:23.517Z,15.11
2017-10-04T02:45:17.829Z,15.14
2017-10-04T02:46:17.845Z,15.13
2017-10-04T02:48:12.317Z,15.06
2017-10-04T02:49:12.341Z,15.09
2017-10-04T02:51:06.829Z,15.07
2017-10-04T02:52:06.845Z,15.01
2017-10-04T02:54:00.373Z,14.91
2017-10-04T02:55:00.397Z,14.96
2017-10-04T02:56:53.949Z,14.95
2017-10-04T02:57:53.909Z,14.98
2017-10-04T02:59:47.453Z,14.92
2017-10-04T03:00:47.462Z,14.91
2017-10-04T03:02:42.021Z,14.91
2017-10-04T03:03:41.995Z,14.91
2017-10-04T03:05:35.533Z,14.94
2017-10-04T03:06:35.573Z,14.89
2017-10-04T03:08:28.566Z,14.94
2017-10-04T03:09:29.582Z,14.95
2017-10-04T03:11:22.030Z,14.92
2017-10-04T03:12:22.094Z,14.89
2017-10-04T03:14:16.543Z,14.92
2017-10-04T03:15:16.833Z,14.89
2017-10-04T03:17:11.181Z,14.86
2017-10-04T03:18:11.078Z,14.84
2017-10-04T03:20:05.070Z,14.98
2017-10-04T03:21:05.119Z,14.89
2017-10-04T03:22:58.102Z,14.81
2017-10-04T03:23:58.167Z,14.81
2017-10-04T03:25:52.590Z,14.80
2017-10-04T03:26:52.774Z,14.81
2017-10-04T03:28:46.182Z,14.75
2017-10-04T03:29:46.183Z,14.83
2017-10-04T03:31:40.763Z,14.83
2017-10-04T03:32:40.719Z,14.88
2017-10-04T03:34:35.279Z,14.77
2017-10-04T03:35:35.311Z,14.80
2017-10-04T03:37:29.711Z,14.83
2017-10-04T03:38:29.727Z,14.78
2017-10-04T03:40:32.831Z,14.80
2017-10-04T03:41:24.239Z,14.81
2017-10-04T03:43:18.671Z,14.78
2017-10-04T03:44:18.807Z,14.80
2017-10-04T03:46:12.301Z,14.81
2017-10-04T03:47:12.303Z,14.72
2017-10-04T03:49:05.751Z,14.52
2017-10-04T03:50:05.832Z,14.73
2017-10-04T03:52:00.312Z,14.64
2017-10-04T03:53:00.343Z,14.62
2017-10-04T03:54:54.824Z,14.52
2017-10-04T03:55:54.879Z,14.57
2017-10-04T03:57:50.872Z,14.46
2017-10-04T03:58:50.893Z,14.58
2017-10-04T04:00:45.376Z,14.47
2017-10-04T04:01:45.383Z,14.57
2017-10-04T04:03:39.904Z,14.58
2017-10-04T04:04:39.928Z,14.60
2017-10-04T04:06:33.384Z,14.62
2017-10-04T04:07:33.472Z,14.55
2017-10-04T04:09:27.920Z,14.55
2017-10-04T04:10:27.952Z,14.47
2017-10-04T04:12:22.392Z,14.55
2017-10-04T04:13:22.416Z,14.61
2017-10-04T04:15:15.961Z,14.60
2017-10-04T04:16:16.024Z,14.50
2017-10-04T04:18:11.120Z,14.47
2017-10-04T04:19:10.520Z,14.47
2017-10-04T04:21:05.033Z,14.51
2017-10-04T04:22:05.017Z,14.47
2017-10-04T04:23:58.552Z,14.47
2017-10-04T04:24:58.569Z,14.47
2017-10-04T04:26:51.602Z,14.45
2017-10-04T04:27:51.577Z,14.55
2017-10-04T04:29:52.185Z,14.47
2017-10-04T04:30:45.080Z,14.45
2017-10-04T04:32:38.617Z,14.43
2017-10-04T04:33:38.561Z,14.42
2017-10-04T04:35:33.025Z,14.60
2017-10-04T04:36:33.067Z,14.46
2017-10-04T04:38:27.594Z,14.46
2017-10-04T04:39:27.561Z,14.45
2017-10-04T04:41:21.097Z,14.47
2017-10-04T04:42:21.137Z,14.43
2017-10-04T04:44:14.138Z,14.50
2017-10-04T04:45:14.150Z,14.43
2017-10-04T04:47:07.715Z,14.47
2017-10-04T04:48:07.705Z,14.43
2017-10-04T04:50:01.162Z,14.45
2017-10-04T04:51:01.220Z,14.45
2017-10-04T04:52:55.714Z,14.43
2017-10-04T04:53:55.738Z,14.37
2017-10-04T04:55:49.250Z,14.43
2017-10-04T04:56:49.306Z,14.33
2017-10-04T04:58:43.956Z,14.45
2017-10-04T04:59:43.811Z,14.40
2017-10-04T05:01:38.326Z,14.24
2017-10-04T05:02:38.362Z,14.22
2017-10-04T05:04:32.795Z,14.28
2017-10-04T05:05:32.811Z,14.37
2017-10-04T05:07:26.369Z,14.22
2017-10-04T05:08:26.410Z,14.27
2017-10-04T05:10:19.409Z,14.21
2017-10-04T05:11:19.433Z,14.20
2017-10-04T05:13:12.899Z,14.18
2017-10-04T05:14:12.469Z,14.12
2017-10-04T05:16:06.932Z,14.24
2017-10-04T05:17:06.976Z,14.17
2017-10-04T05:19:01.420Z,14.17
2017-10-04T05:20:01.468Z,14.17
2017-10-04T05:21:54.996Z,14.03
2017-10-04T05:22:54.996Z,14.07
2017-10-04T05:24:48.515Z,14.10
2017-10-04T05:25:48.531Z,14.10
2017-10-04T05:27:42.971Z,14.04
2017-10-04T05:28:43.019Z,14.06
2017-10-04T05:30:36.011Z,14.07
2017-10-04T05:31:36.043Z,14.06
2017-10-04T05:33:30.516Z,14.04
2017-10-04T05:34:30.515Z,14.02
2017-10-04T05:36:24.987Z,13.95
2017-10-04T05:37:25.012Z,14.02
2017-10-04T05:39:18.459Z,14.03
2017-10-04T05:40:18.492Z,13.95
2017-10-04T05:42:13.006Z,14.00
2017-10-04T05:43:12.996Z,13.91
2017-10-04T05:45:06.444Z,13.95
2017-10-04T05:46:06.477Z,13.91
2017-10-04T05:48:00.137Z,13.92
2017-10-04T05:49:00.022Z,13.95
2017-10-04T05:50:54.452Z,13.97
2017-10-04T05:51:54.525Z,13.99
2017-10-04T05:53:48.972Z,14.04
2017-10-04T05:54:48.988Z,14.03
2017-10-04T05:56:43.436Z,14.02
2017-10-04T05:57:43.492Z,14.03
2017-10-04T05:59:37.957Z,14.03
2017-10-04T06:00:37.964Z,14.07
2017-10-04T06:02:31.423Z,14.15
2017-10-04T06:03:31.452Z,14.06
2017-10-04T06:05:25.921Z,14.14
2017-10-04T06:06:25.942Z,13.97
2017-10-04T06:08:20.454Z,14.12
2017-10-04T06:09:20.445Z,14.07
2017-10-04T06:11:14.908Z,14.14
2017-10-04T06:12:14.966Z,14.14
2017-10-04T06:14:09.421Z,14.15
2017-10-04T06:15:09.429Z,14.17
2017-10-04T06:17:03.960Z,14.18
2017-10-04T06:18:03.003Z,14.21
2017-10-04T06:19:57.468Z,14.20
2017-10-04T06:20:57.523Z,14.18
2017-10-04T06:22:50.995Z,14.27
2017-10-04T06:23:51.037Z,14.18
2017-10-04T06:25:44.532Z,14.24
2017-10-04T06:26:44.598Z,14.27
2017-10-04T06:28:37.608Z,14.40
2017-10-04T06:29:37.574Z,14.36
2017-10-04T06:31:32.031Z,14.33
2017-10-04T06:32:32.071Z,14.32
2017-10-04T06:34:25.575Z,14.40
2017-10-04T06:35:25.576Z,14.39
2017-10-04T06:37:19.096Z,14.36
2017-10-04T06:38:19.119Z,14.33
2017-10-04T06:40:13.550Z,14.40
2017-10-04T06:41:13.598Z,14.51
2017-10-04T06:43:08.111Z,14.45
2017-10-04T06:44:08.071Z,14.46
2017-10-04T06:46:01.599Z,14.58
2017-10-04T06:47:01.616Z,14.58
2017-10-04T06:48:54.624Z,14.75
2017-10-04T06:49:54.639Z,14.78
2017-10-04T06:51:49.168Z,14.78
2017-10-04T06:52:49.199Z,14.75
2017-10-04T06:54:43.695Z,14.78
2017-10-04T06:55:43.664Z,14.78
2017-10-04T06:57:38.112Z,14.80
2017-10-04T06:58:38.176Z,14.80
2017-10-04T07:00:32.623Z,14.86
2017-10-04T07:01:32.640Z,14.92
2017-10-04T07:03:27.096Z,14.86
2017-10-04T07:04:27.136Z,14.98
2017-10-04T07:06:21.657Z,14.80
2017-10-04T07:07:21.656Z,14.78
2017-10-04T07:09:16.254Z,14.83
2017-10-04T07:10:16.128Z,14.83
2017-10-04T07:12:10.624Z,14.78
2017-10-04T07:13:10.632Z,14.78
2017-10-04T07:15:05.113Z,14.92
2017-10-04T07:16:05.129Z,15.01
2017-10-04T07:17:58.649Z,14.98
2017-10-04T07:18:58.641Z,14.94
2017-10-04T07:20:53.093Z,15.01
2017-10-04T07:21:53.207Z,14.96
2017-10-04T07:23:46.665Z,14.99
2017-10-04T07:24:46.665Z,15.11
2017-10-04T07:26:41.169Z,15.07
2017-10-04T07:27:41.193Z,15.20
2017-10-04T07:29:37.129Z,15.21
2017-10-04T07:30:37.169Z,15.21
2017-10-04T07:32:30.665Z,15.17
2017-10-04T07:33:30.681Z,15.16
2017-10-04T07:35:26.713Z,15.23
2017-10-04T07:36:26.721Z,15.31
2017-10-04T07:38:21.194Z,15.28
2017-10-04T07:39:21.202Z,15.29
2017-10-04T07:41:15.705Z,15.49
2017-10-04T07:42:15.698Z,15.41
2017-10-04T07:44:10.147Z,15.43
2017-10-04T07:45:10.217Z,15.41
2017-10-04T07:47:03.738Z,15.35
2017-10-04T07:48:03.738Z,15.44
2017-10-04T07:49:56.722Z,15.44
2017-10-04T07:50:56.727Z,15.35
2017-10-04T07:52:51.242Z,15.43
2017-10-04T07:53:51.290Z,15.51
2017-10-04T07:55:45.714Z,15.46
2017-10-04T07:56:45.754Z,15.47
2017-10-04T07:58:40.234Z,15.53
2017-10-04T07:59:40.251Z,15.50
2017-10-04T08:01:34.762Z,15.57
2017-10-04T08:02:34.748Z,15.57
2017-10-04T08:04:29.221Z,15.54
2017-10-04T08:05:29.250Z,15.74
2017-10-04T08:07:22.826Z,15.76
2017-10-04T08:08:22.795Z,15.75
2017-10-04T08:10:17.339Z,15.75
2017-10-04T08:11:17.379Z,15.78
2017-10-04T08:13:11.883Z,15.82
2017-10-04T08:14:11.859Z,15.78
2017-10-04T08:16:06.316Z,15.67
2017-10-04T08:17:06.355Z,15.80
2017-10-04T08:18:59.940Z,15.69
2017-10-04T08:19:59.948Z,15.62
2017-10-04T08:21:54.883Z,15.50
2017-10-04T08:22:54.923Z,15.51
2017-10-04T08:24:49.419Z,15.57
2017-10-04T08:25:49.420Z,15.49
2017-10-04T08:27:43.915Z,15.69
2017-10-04T08:28:43.956Z,15.69
2017-10-04T08:30:38.396Z,15.93
2017-10-04T08:31:38.453Z,16.01
2017-10-04T08:33:32.860Z,16.15
2017-10-04T08:34:32.948Z,16.27
2017-10-04T08:36:27.388Z,16.35
2017-10-04T08:37:27.428Z,16.42
2017-10-04T08:39:21.932Z,16.43
2017-10-04T08:40:21.900Z,16.57
2017-10-04T08:42:16.412Z,16.52
2017-10-04T08:43:16.444Z,16.70
2017-10-04T08:45:09.957Z,16.91
2017-10-04T08:46:09.973Z,17.06
2017-10-04T08:48:03.005Z,16.97
2017-10-04T08:49:03.005Z,16.89
2017-10-04T08:50:55.964Z,16.91
2017-10-04T08:51:55.996Z,17.04
2017-10-04T08:53:50.492Z,16.93
2017-10-04T08:54:50.510Z,16.96
2017-10-04T08:56:43.988Z,17.04
2017-10-04T08:57:44.013Z,17.07
2017-10-04T08:59:38.485Z,17.07
2017-10-04T09:00:38.501Z,16.93
2017-10-04T09:02:31.981Z,16.79
2017-10-04T09:03:32.005Z,16.83
2017-10-04T09:05:26.493Z,16.97
2017-10-04T09:06:26.501Z,17.07
2017-10-04T09:08:19.502Z,17.21
2017-10-04T09:09:19.517Z,17.36
2017-10-04T09:11:14.013Z,17.49
2017-10-04T09:12:14.030Z,17.41
2017-10-04T09:14:08.485Z,17.58
2017-10-04T09:15:08.526Z,17.62
2017-10-04T09:17:02.094Z,17.78
2017-10-04T09:18:02.081Z,17.70
2017-10-04T09:19:56.573Z,17.78
2017-10-04T09:20:56.621Z,17.75
2017-10-04T09:22:50.182Z,17.66
2017-10-04T09:23:50.174Z,17.56
2017-10-04T09:25:43.174Z,17.74
2017-10-04T09:26:43.222Z,17.74
2017-10-04T09:28:36.206Z,17.58
2017-10-04T09:29:36.239Z,17.68
2017-10-04T09:31:30.718Z,17.74
2017-10-04T09:32:30.711Z,17.74
2017-10-04T09:34:24.176Z,17.86
2017-10-04T09:35:24.222Z,17.92
2017-10-04T09:37:18.742Z,18.00
2017-10-04T09:38:18.727Z,18.05
2017-10-04T09:40:13.183Z,17.93
2017-10-04T09:41:13.247Z,17.90
2017-10-04T09:43:06.743Z,17.93
2017-10-04T09:44:06.782Z,17.93
2017-10-04T09:46:01.262Z,17.86
2017-10-04T09:47:01.311Z,17.92
2017-10-04T09:48:55.743Z,17.92
2017-10-04T09:49:55.783Z,17.81
2017-10-04T09:51:49.274Z,17.84
2017-10-04T09:52:49.279Z,17.81
2017-10-04T09:54:43.762Z,18.00
2017-10-04T09:55:43.813Z,17.99
2017-10-04T09:57:38.287Z,18.07
2017-10-04T09:58:38.311Z,18.10
2017-10-04T10:00:32.783Z,18.08
2017-10-04T10:01:32.832Z,18.12
2017-10-04T10:03:27.384Z,18.17
2017-10-04T10:04:27.376Z,18.07
2017-10-04T10:06:20.912Z,17.95
2017-10-04T10:07:20.880Z,17.78
2017-10-04T10:09:14.455Z,18.08
2017-10-04T10:10:14.448Z,18.17
2017-10-04T10:12:07.480Z,18.27
2017-10-04T10:13:07.464Z,18.29
2017-10-04T10:15:00.954Z,18.39
2017-10-04T10:16:00.971Z,18.65
2017-10-04T10:17:54.443Z,18.73
2017-10-04T10:18:54.464Z,18.98
2017-10-04T10:20:47.936Z,19.16
2017-10-04T10:21:47.977Z,19.21
2017-10-04T10:23:42.480Z,19.18
2017-10-04T10:24:42.498Z,19.04
2017-10-04T10:26:36.993Z,18.90
2017-10-04T10:27:38.120Z,18.92
2017-10-04T10:29:31.449Z,18.87
2017-10-04T10:30:31.520Z,19.06
2017-10-04T10:32:25.993Z,19.28
2017-10-04T10:33:26.009Z,19.32
2017-10-04T10:35:19.552Z,19.55
2017-10-04T10:36:19.585Z,19.77
2017-10-04T10:38:14.113Z,19.94
2017-10-04T10:39:14.097Z,20.23
2017-10-04T10:41:07.593Z,20.36
2017-10-04T10:42:07.609Z,20.74
2017-10-04T10:44:01.212Z,20.69
2017-10-04T10:45:01.201Z,20.70
2017-10-04T10:46:55.681Z,20.50
2017-10-04T10:47:55.921Z,20.74
2017-10-04T10:49:48.673Z,20.91
2017-10-04T10:50:48.721Z,21.25
2017-10-04T10:52:43.218Z,20.97
2017-10-04T10:53:43.281Z,20.91
2017-10-04T10:55:37.690Z,20.87
2017-10-04T10:56:37.738Z,20.70
2017-10-04T10:58:32.218Z,20.61
2017-10-04T10:59:32.242Z,20.54
2017-10-04T11:01:26.714Z,20.41
2017-10-04T11:02:26.762Z,20.32
2017-10-04T11:04:21.339Z,20.17
2017-10-04T11:05:21.298Z,20.29
2017-10-04T11:07:15.730Z,20.17
2017-10-04T11:08:15.778Z,20.05
2017-10-04T11:10:09.362Z,19.95
2017-10-04T11:11:09.379Z,19.86
2017-10-04T11:13:03.827Z,19.69
2017-10-04T11:14:03.899Z,19.69
2017-10-04T11:15:58.371Z,19.87
2017-10-04T11:16:58.378Z,19.87
2017-10-04T11:18:51.875Z,19.88
2017-10-04T11:19:51.891Z,19.92
2017-10-04T11:21:46.459Z,19.92
2017-10-04T11:22:46.403Z,19.99
2017-10-04T11:24:39.866Z,19.86
2017-10-04T11:25:39.923Z,19.58
2017-10-04T11:27:34.393Z,19.37
2017-10-04T11:28:34.417Z,19.36
2017-10-04T11:30:28.906Z,19.19
2017-10-04T11:31:28.921Z,19.21
2017-10-04T11:33:23.432Z,19.06
2017-10-04T11:34:23.425Z,19.07
2017-10-04T11:36:18.920Z,19.10
2017-10-04T11:37:18.937Z,19.10
2017-10-04T11:39:13.529Z,18.81
2017-10-04T11:40:12.449Z,18.72
2017-10-04T11:42:06.921Z,18.58
2017-10-04T11:43:06.969Z,18.65
2017-10-04T11:45:01.441Z,18.69
2017-10-04T11:46:01.458Z,18.55
2017-10-04T11:47:55.938Z,18.41
2017-10-04T11:48:56.009Z,18.62
2017-10-04T11:50:50.481Z,18.54
2017-10-04T11:51:50.492Z,18.67
2017-10-04T11:53:44.954Z,18.81
2017-10-04T11:54:44.986Z,18.72
2017-10-04T11:56:39.544Z,18.55
2017-10-04T11:57:39.498Z,18.58
2017-10-04T11:59:34.962Z,18.57
2017-10-04T12:00:35.002Z,18.52
2017-10-04T12:02:29.474Z,18.70
2017-10-04T12:03:29.498Z,18.70
2017-10-04T12:05:23.962Z,18.72
2017-10-04T12:06:24.018Z,18.62
2017-10-04T12:08:18.482Z,18.69
2017-10-04T12:09:18.506Z,18.78
2017-10-04T12:11:11.499Z,18.81
2017-10-04T12:12:11.514Z,18.95
2017-10-04T12:14:04.987Z,18.75
2017-10-04T12:15:05.019Z,18.78
2017-10-04T12:16:58.483Z,18.81
2017-10-04T12:17:58.522Z,18.78
2017-10-04T12:19:52.026Z,18.98
2017-10-04T12:20:52.027Z,18.99
2017-10-04T12:22:46.483Z,18.76
2017-10-04T12:23:46.523Z,18.82
2017-10-04T12:25:41.011Z,18.84
2017-10-04T12:26:41.027Z,19.04
2017-10-04T12:28:34.523Z,19.00
2017-10-04T12:29:34.547Z,19.21
2017-10-04T12:31:29.019Z,19.29
2017-10-04T12:32:29.085Z,19.22
2017-10-04T12:34:22.562Z,19.29
2017-10-04T12:35:22.555Z,19.28
2017-10-04T12:37:17.019Z,19.41
2017-10-04T12:38:17.060Z,19.40
2017-10-04T12:40:11.571Z,19.31
2017-10-04T12:41:11.572Z,19.19
2017-10-04T12:43:06.029Z,19.13
2017-10-04T12:44:06.067Z,19.13
2017-10-04T12:45:59.548Z,19.19
2017-10-04T12:46:59.564Z,19.29
2017-10-04T12:48:53.188Z,19.16
2017-10-04T12:49:53.157Z,19.21
2017-10-04T12:51:47.612Z,19.18
2017-10-04T12:52:47.652Z,19.18
2017-10-04T12:54:41.298Z,19.11
2017-10-04T12:55:41.248Z,19.13
2017-10-04T12:57:34.692Z,19.16
2017-10-04T12:58:34.733Z,19.18
2017-10-04T13:00:28.396Z,19.06
2017-10-04T13:02:41.861Z,18.76
2017-10-04T13:03:41.900Z,18.73
2017-10-04T13:05:36.389Z,18.78
2017-10-04T13:06:36.413Z,18.81
2017-10-04T13:08:29.883Z,18.75
2017-10-04T13:09:29.914Z,18.58
2017-10-04T13:11:24.406Z,18.80
2017-10-04T13:12:24.430Z,18.69
2017-10-04T13:14:18.917Z,18.69
2017-10-04T13:15:18.942Z,18.50
2017-10-04T13:17:13.414Z,18.54
2017-10-04T13:18:13.479Z,18.55
2017-10-04T13:20:06.982Z,18.36
2017-10-04T13:21:06.967Z,18.63
2017-10-04T13:23:00.519Z,18.44
2017-10-04T13:24:00.512Z,18.44
2017-10-04T13:25:53.573Z,18.25
2017-10-04T13:26:53.566Z,18.18
2017-10-04T13:28:48.015Z,18.33
2017-10-04T13:29:48.119Z,18.33
2017-10-04T13:31:42.559Z,18.21
2017-10-04T13:32:42.569Z,18.25
2017-10-04T13:34:36.143Z,18.10
2017-10-04T13:35:36.190Z,18.00
2017-10-04T13:37:30.703Z,17.96
2017-10-04T13:38:30.687Z,17.96
2017-10-04T13:40:24.167Z,18.03
2017-10-04T13:41:24.191Z,18.17
2017-10-04T13:43:18.759Z,18.17
2017-10-04T13:44:18.696Z,18.20
2017-10-04T13:46:13.231Z,18.18
2017-10-04T13:47:13.208Z,18.14
2017-10-04T13:49:06.768Z,18.17
2017-10-04T13:50:06.776Z,18.14
2017-10-04T13:51:59.848Z,18.07
2017-10-04T13:52:59.856Z,18.11
2017-10-04T13:54:54.305Z,18.10
2017-10-04T13:55:54.329Z,18.11
2017-10-04T13:57:47.825Z,18.30
2017-10-04T13:58:47.857Z,18.27
2017-10-04T14:00:41.537Z,18.17
2017-10-04T14:01:41.562Z,18.17
2017-10-04T14:03:36.050Z,18.07
2017-10-04T14:04:36.041Z,18.00
2017-10-04T14:06:29.554Z,18.08
2017-10-04T14:07:29.666Z,18.07
2017-10-04T14:09:24.025Z,18.07
2017-10-04T14:10:24.122Z,18.05
2017-10-04T14:12:19.634Z,18.07
2017-10-04T14:13:18.586Z,17.99
2017-10-04T14:15:13.114Z,18.10
2017-10-04T14:16:13.098Z,17.92
2017-10-04T14:18:07.634Z,17.78
2017-10-04T14:19:07.650Z,17.87
2017-10-04T14:21:02.066Z,17.93
2017-10-04T14:22:02.115Z,17.90
2017-10-04T14:23:56.579Z,17.89
2017-10-04T14:24:56.602Z,17.93
2017-10-04T14:26:49.570Z,17.89
2017-10-04T14:27:49.610Z,17.78
2017-10-04T14:29:43.082Z,17.75
2017-10-04T14:30:43.148Z,17.78
2017-10-04T14:32:37.635Z,17.81
2017-10-04T14:33:37.619Z,17.90
2017-10-04T14:35:31.171Z,17.54
2017-10-04T14:36:31.155Z,17.63
2017-10-04T14:38:25.659Z,17.58
2017-10-04T14:39:25.659Z,17.55
2017-10-04T14:41:20.108Z,17.58
2017-10-04T14:42:20.172Z,17.68
2017-10-04T14:44:13.644Z,17.62
2017-10-04T14:45:13.835Z,17.62
2017-10-04T14:47:07.123Z,17.56
2017-10-04T14:48:07.155Z,17.56
2017-10-04T14:50:00.644Z,17.44
2017-10-04T14:51:00.644Z,17.31
2017-10-04T14:52:54.125Z,17.36
2017-10-04T14:53:54.220Z,17.31
2017-10-04T14:55:47.706Z,17.36
2017-10-04T14:56:47.692Z,17.33
2017-10-04T14:58:42.140Z,17.21
2017-10-04T14:59:42.188Z,17.22
2017-10-04T15:01:36.740Z,17.28
2017-10-04T15:02:36.813Z,17.31
2017-10-04T15:04:31.269Z,17.23
2017-10-04T15:05:31.260Z,17.04
2017-10-04T15:07:25.748Z,17.25
2017-10-04T15:08:25.764Z,17.18
2017-10-04T15:10:20.244Z,17.07
2017-10-04T15:11:20.269Z,17.12
2017-10-04T15:13:14.789Z,17.23
2017-10-04T15:14:14.773Z,17.22
2017-10-04T15:16:08.829Z,17.30
2017-10-04T15:17:08.829Z,17.28
2017-10-04T15:19:02.340Z,17.33
2017-10-04T15:20:02.380Z,17.33
2017-10-04T15:21:56.875Z,17.51
2017-10-04T15:22:56.901Z,17.55
2017-10-04T15:24:49.859Z,17.56
2017-10-04T15:25:49.899Z,17.59
2017-10-04T15:27:43.396Z,17.54
2017-10-04T15:28:43.386Z,17.64
2017-10-04T15:30:37.867Z,17.58
2017-10-04T15:31:37.898Z,17.49
2017-10-04T15:33:33.395Z,17.37
2017-10-04T15:34:33.403Z,17.33
2017-10-04T15:36:26.883Z,17.28
2017-10-04T15:37:26.891Z,17.37
2017-10-04T15:39:20.348Z,17.36
2017-10-04T15:40:20.435Z,17.31
2017-10-04T15:42:14.931Z,17.30
2017-10-04T15:43:14.962Z,17.22
2017-10-04T15:45:09.354Z,17.15
2017-10-04T15:46:09.402Z,17.00
2017-10-04T15:48:05.378Z,17.08
2017-10-04T15:49:05.402Z,17.04
2017-10-04T15:50:58.914Z,17.08
2017-10-04T15:51:58.915Z,17.06
2017-10-04T15:53:52.378Z,17.04
2017-10-04T15:54:52.442Z,16.93
2017-10-04T15:56:45.993Z,16.94
2017-10-04T15:57:46.003Z,16.94
2017-10-04T15:59:39.450Z,16.89
2017-10-04T16:00:39.506Z,16.96
2017-10-04T16:02:33.098Z,16.94
2017-10-04T16:03:33.090Z,16.94
2017-10-04T16:05:27.578Z,16.79
2017-10-04T16:06:27.570Z,16.79
2017-10-04T16:08:21.190Z,16.78
2017-10-04T16:09:21.162Z,16.71
2017-10-04T16:11:14.634Z,16.75
2017-10-04T16:12:14.651Z,16.76
2017-10-04T16:14:09.130Z,16.67
2017-10-04T16:15:09.150Z,16.63
2017-10-04T16:17:02.723Z,16.67
2017-10-04T16:18:02.820Z,16.68
2017-10-04T16:19:56.203Z,16.60
2017-10-04T16:20:56.171Z,16.60
2017-10-04T16:22:50.659Z,16.48
2017-10-04T16:23:50.675Z,16.49
2017-10-04T16:25:45.131Z,16.53
2017-10-04T16:26:45.179Z,16.53
2017-10-04T16:28:39.668Z,16.50
2017-10-04T16:29:39.683Z,16.50
2017-10-04T16:31:33.187Z,16.46
2017-10-04T16:32:33.227Z,16.46
2017-10-04T16:34:27.716Z,16.48
2017-10-04T16:35:27.755Z,16.48
2017-10-04T16:37:21.251Z,16.45
2017-10-04T16:38:21.283Z,16.39
2017-10-04T16:40:14.290Z,16.35
2017-10-04T16:41:14.307Z,16.35
2017-10-04T16:43:07.308Z,16.41
2017-10-04T16:44:07.331Z,16.25
2017-10-04T16:46:01.804Z,16.27
2017-10-04T16:47:01.890Z,16.28
2017-10-04T16:48:55.314Z,16.28
2017-10-04T16:49:55.330Z,16.24
2017-10-04T16:51:48.833Z,16.15
2017-10-04T16:52:48.866Z,16.20
2017-10-04T16:54:42.362Z,16.20
2017-10-04T16:55:42.377Z,16.07
2017-10-04T16:57:35.890Z,16.04
2017-10-04T16:58:35.922Z,16.07
2017-10-04T17:00:30.424Z,16.02
2017-10-04T17:01:30.429Z,16.04
2017-10-04T17:03:24.904Z,16.04
2017-10-04T17:04:24.921Z,16.02
2017-10-04T17:06:18.432Z,16.01
2017-10-04T17:07:18.465Z,16.07
2017-10-04T17:09:12.985Z,16.11
2017-10-04T17:10:12.977Z,16.09
2017-10-04T17:12:06.545Z,16.00
2017-10-04T17:13:06.568Z,15.93
2017-10-04T17:15:00.097Z,15.86
2017-10-04T17:16:00.078Z,15.92
2017-10-04T17:17:53.619Z,15.75
2017-10-04T17:18:53.625Z,15.75
2017-10-04T17:20:46.601Z,15.86
2017-10-04T17:21:46.824Z,15.75
2017-10-04T17:23:40.184Z,15.78
2017-10-04T17:24:41.120Z,15.75
2017-10-04T17:26:33.664Z,15.86
2017-10-04T17:27:33.705Z,15.83
2017-10-04T17:29:28.206Z,15.80
2017-10-04T17:30:28.198Z,15.87
2017-10-04T17:32:21.652Z,15.68
2017-10-04T17:33:21.692Z,15.75
2017-10-04T17:35:16.244Z,15.72
2017-10-04T17:36:16.188Z,15.76
2017-10-04T17:38:10.032Z,15.71
2017-10-04T17:39:09.823Z,15.78
2017-10-04T17:41:03.238Z,15.74
2017-10-04T17:42:03.282Z,15.72
2017-10-04T17:43:56.804Z,15.72
2017-10-04T17:44:56.880Z,15.75
2017-10-04T17:46:49.831Z,15.67
2017-10-04T17:47:49.855Z,15.68
2017-10-04T17:49:43.359Z,15.72
2017-10-04T17:50:43.351Z,15.72
2017-10-04T17:52:36.994Z,15.67
2017-10-04T17:53:36.907Z,15.68
2017-10-04T17:55:31.427Z,15.60
2017-10-04T17:56:31.437Z,15.59
2017-10-04T17:58:28.647Z,15.60
2017-10-04T17:59:26.799Z,15.54
2017-10-04T18:01:21.013Z,15.62
2017-10-04T18:02:21.086Z,15.64
2017-10-04T18:04:14.646Z,15.60
2017-10-04T18:05:14.614Z,15.60
2017-10-04T18:07:07.604Z,15.56
2017-10-04T18:08:07.649Z,15.71
2017-10-04T18:10:00.628Z,15.60
2017-10-04T18:11:00.620Z,15.60
2017-10-04T18:12:54.092Z,15.59
2017-10-04T18:13:54.124Z,15.60
2017-10-04T18:15:48.620Z,15.60
2017-10-04T18:16:48.628Z,15.65
2017-10-04T18:18:43.125Z,15.60
2017-10-04T18:19:43.132Z,15.51
2017-10-04T18:21:36.597Z,15.53
2017-10-04T18:22:36.621Z,15.53
2017-10-04T18:24:31.085Z,15.49
2017-10-04T18:25:31.116Z,15.44
2017-10-04T18:27:25.589Z,15.51
2017-10-04T18:28:25.613Z,15.49
2017-10-04T18:30:19.117Z,15.46
2017-10-04T18:31:19.101Z,15.54
2017-10-04T18:33:12.565Z,15.53
2017-10-04T18:34:12.617Z,15.53
2017-10-04T18:36:07.089Z,15.62
2017-10-04T18:37:07.113Z,15.54
2017-10-04T18:39:00.690Z,15.56
2017-10-04T18:40:00.737Z,15.54
2017-10-04T18:41:55.176Z,15.51
2017-10-04T18:42:55.192Z,15.47